createdAt,value
2018-05-17T00:01:14.982Z,26.40
2018-05-17T00:03:42.400Z,30.87
2018-05-17T00:06:09.848Z,27.93
2018-05-17T00:08:37.492Z,31.63
2018-05-17T00:11:05.205Z,29.60
2018-05-17T00:13:32.509Z,34.93
2018-05-17T00:15:59.859Z,37.23
2018-05-17T00:18:27.211Z,36.53
2018-05-17T00:20:54.490Z,36.67
2018-05-17T00:23:21.779Z,33.13
2018-05-17T00:25:49.055Z,33.33
2018-05-17T00:28:16.329Z,37.63
2018-05-17T00:30:43.751Z,38.77
2018-05-17T00:33:11.163Z,42.50
2018-05-17T00:35:38.525Z,44.60
2018-05-17T00:38:06.063Z,48.53
2018-05-17T00:40:33.370Z,47.23
2018-05-17T00:43:00.693Z,44.40
2018-05-17T00:45:28.026Z,48.23
2018-05-17T00:47:55.389Z,39.67
2018-05-17T00:50:22.621Z,36.20
2018-05-17T00:52:55.827Z,39.53
2018-05-17T00:55:23.124Z,37.80
2018-05-17T00:57:50.450Z,37.13
2018-05-17T01:00:17.742Z,41.20
2018-05-17T01:02:45.025Z,39.43
2018-05-17T01:05:12.354Z,35.27
2018-05-17T01:07:39.732Z,39.70
2018-05-17T01:10:07.421Z,37.93
2018-05-17T01:12:34.716Z,35.60
2018-05-17T01:15:02.034Z,35.00
2018-05-17T01:17:29.458Z,32.10
2018-05-17T01:19:56.914Z,32.27
2018-05-17T01:22:24.200Z,30.83
2018-05-17T01:24:51.464Z,33.93
2018-05-17T01:27:18.774Z,33.30
2018-05-17T01:29:46.061Z,34.23
2018-05-17T01:32:13.440Z,30.60
2018-05-17T01:34:40.750Z,34.90
2018-05-17T01:37:13.897Z,31.77
2018-05-17T01:39:41.277Z,32.57
2018-05-17T01:42:08.891Z,31.33
2018-05-17T01:44:36.341Z,32.40
2018-05-17T01:47:03.635Z,26.60
2018-05-17T01:49:31.653Z,28.97
2018-05-17T01:51:58.951Z,25.03
2018-05-17T01:54:26.229Z,24.00
2018-05-17T01:56:54.154Z,23.70
2018-05-17T01:59:21.457Z,26.03
2018-05-17T02:01:48.753Z,21.70
2018-05-17T02:04:16.038Z,24.20
2018-05-17T02:06:43.373Z,22.27
2018-05-17T02:09:10.725Z,21.67
2018-05-17T02:11:38.289Z,19.30
2018-05-17T02:14:05.804Z,21.77
2018-05-17T02:16:33.126Z,21.40
2018-05-17T02:19:00.425Z,21.90
2018-05-17T02:21:27.822Z,24.00
2018-05-17T02:23:56.042Z,24.40
2018-05-17T02:26:23.304Z,30.07
2018-05-17T02:28:50.601Z,32.07
2018-05-17T02:31:17.910Z,30.47
2018-05-17T02:33:45.208Z,36.07
2018-05-17T02:36:12.554Z,37.73
2018-05-17T02:38:39.933Z,35.80
2018-05-17T02:41:07.369Z,40.33
2018-05-17T02:43:34.723Z,44.37
2018-05-17T02:46:02.025Z,37.17
2018-05-17T02:48:29.361Z,37.77
2018-05-17T02:50:57.593Z,45.03
2018-05-17T02:53:24.872Z,47.57
2018-05-17T02:55:52.158Z,47.10
2018-05-17T02:58:19.436Z,43.77
2018-05-17T03:00:46.730Z,44.53
2018-05-17T03:03:14.127Z,42.90
2018-05-17T03:05:41.458Z,40.60
2018-05-17T03:08:08.866Z,49.10
2018-05-17T03:10:37.145Z,42.67
2018-05-17T03:13:04.424Z,48.83
2018-05-17T03:15:32.646Z,64.53
2018-05-17T03:17:59.988Z,46.37
2018-05-17T03:20:27.316Z,44.93
2018-05-17T03:22:54.618Z,45.40
2018-05-17T03:25:21.919Z,37.77
2018-05-17T03:27:49.223Z,42.50
2018-05-17T03:30:16.498Z,42.90
2018-05-17T03:32:43.811Z,47.70
2018-05-17T03:35:11.159Z,44.93
2018-05-17T03:37:38.598Z,44.10
2018-05-17T03:40:06.017Z,49.40
2018-05-17T03:42:33.298Z,48.67
2018-05-17T03:45:00.720Z,45.23
2018-05-17T03:47:28.099Z,43.20
2018-05-17T03:49:55.393Z,44.70
2018-05-17T03:52:22.666Z,51.73
2018-05-17T03:54:49.963Z,53.63
2018-05-17T03:57:17.295Z,51.80
2018-05-17T03:59:44.665Z,50.60
2018-05-17T04:02:17.713Z,36.03
2018-05-17T04:04:50.803Z,44.47
2018-05-17T04:07:18.142Z,40.47
2018-05-17T04:09:45.435Z,41.40
2018-05-17T04:12:12.797Z,39.90
2018-05-17T04:14:40.328Z,41.30
2018-05-17T04:17:07.790Z,36.50
2018-05-17T04:19:35.219Z,35.83
2018-05-17T04:22:02.505Z,32.80
2018-05-17T04:24:29.861Z,38.83
2018-05-17T04:26:57.243Z,32.80
2018-05-17T04:29:24.569Z,32.77
2018-05-17T04:31:52.071Z,38.17
2018-05-17T04:34:19.362Z,29.60
2018-05-17T04:36:46.649Z,29.33
2018-05-17T04:39:14.029Z,24.50
2018-05-17T04:41:41.433Z,21.73
2018-05-17T04:44:09.403Z,21.30
2018-05-17T04:46:36.946Z,19.80
2018-05-17T04:49:04.248Z,19.00
2018-05-17T04:51:31.537Z,18.30
2018-05-17T04:53:58.885Z,16.57
2018-05-17T04:56:26.196Z,15.67
2018-05-17T04:58:53.529Z,18.43
2018-05-17T05:01:20.827Z,14.83
2018-05-17T05:03:48.146Z,12.90
2018-05-17T05:06:15.429Z,13.57
2018-05-17T05:08:42.865Z,11.80
2018-05-17T05:11:10.292Z,14.80
2018-05-17T05:13:37.767Z,12.10
2018-05-17T05:16:05.128Z,10.93
2018-05-17T05:18:32.521Z,13.60
2018-05-17T05:20:59.886Z,10.60
2018-05-17T05:23:27.248Z,9.50
2018-05-17T05:25:54.524Z,9.87
2018-05-17T05:28:21.841Z,9.60
2018-05-17T05:30:49.128Z,10.40
2018-05-17T05:33:16.425Z,8.77
2018-05-17T05:35:43.829Z,7.90
2018-05-17T05:38:11.146Z,7.40
2018-05-17T05:40:38.651Z,9.67
2018-05-17T05:43:06.126Z,6.77
2018-05-17T05:45:33.432Z,7.00
2018-05-17T05:48:00.912Z,7.30
2018-05-17T05:50:28.276Z,6.23
2018-05-17T05:52:55.617Z,9.20
2018-05-17T05:55:22.920Z,5.10
2018-05-17T05:57:50.308Z,6.47
2018-05-17T06:00:17.664Z,7.33
2018-05-17T06:02:45.050Z,7.90
2018-05-17T06:05:12.598Z,5.33
2018-05-17T06:07:40.058Z,4.60
2018-05-17T06:10:07.667Z,6.50
2018-05-17T06:12:35.032Z,7.90
2018-05-17T06:15:02.315Z,5.00
2018-05-17T06:17:29.632Z,5.37
2018-05-17T06:19:56.930Z,4.70
2018-05-17T06:22:24.477Z,4.70
2018-05-17T06:24:51.763Z,16.33
2018-05-17T06:27:19.048Z,11.93
2018-05-17T06:29:46.701Z,7.83
2018-05-17T06:32:14.046Z,11.10
2018-05-17T06:34:41.426Z,10.77
2018-05-17T06:37:08.903Z,4.10
2018-05-17T06:39:36.446Z,6.07
2018-05-17T06:42:04.378Z,5.77
2018-05-17T06:44:31.863Z,3.27
2018-05-17T06:46:59.202Z,5.70
2018-05-17T06:49:26.547Z,3.87
2018-05-17T06:51:53.928Z,5.03
2018-05-17T06:59:27.269Z,4.00
2018-05-17T07:01:54.679Z,5.07
2018-05-17T07:04:21.967Z,7.43
2018-05-17T07:11:55.149Z,4.07
2018-05-17T07:14:23.189Z,8.10
2018-05-17T07:16:54.422Z,4.13
2018-05-17T07:19:21.811Z,7.93
2018-05-17T07:21:49.125Z,3.93
2018-05-17T07:24:16.772Z,3.57
2018-05-17T07:26:44.377Z,8.30
2018-05-17T07:29:12.445Z,4.73
2018-05-17T07:31:40.307Z,6.10
2018-05-17T07:34:07.742Z,5.90
2018-05-17T07:36:35.261Z,4.60
2018-05-17T07:39:02.658Z,6.77
2018-05-17T07:41:29.982Z,5.43
2018-05-17T07:46:29.358Z,9.10
2018-05-17T07:48:58.644Z,8.07
2018-05-17T07:51:25.953Z,6.93
2018-05-17T07:56:24.927Z,6.07
2018-05-17T07:58:52.596Z,7.70
2018-05-17T08:03:54.150Z,7.03
2018-05-17T08:06:21.476Z,9.83
2018-05-17T08:08:49.523Z,7.20
2018-05-17T08:11:16.961Z,13.67
2018-05-17T08:13:44.471Z,7.20
2018-05-17T08:16:11.911Z,6.40
2018-05-17T08:18:39.390Z,8.37
2018-05-17T08:21:07.177Z,6.70
2018-05-17T08:23:34.748Z,8.70
2018-05-17T08:26:02.349Z,8.27
2018-05-17T08:28:29.701Z,6.30
2018-05-17T08:30:57.483Z,11.23
2018-05-17T08:33:25.087Z,7.20
2018-05-17T08:35:52.503Z,6.63
2018-05-17T08:38:19.853Z,7.60
2018-05-17T08:40:47.339Z,9.53
2018-05-17T08:45:47.048Z,11.70
2018-05-17T08:48:14.425Z,8.53
2018-05-17T08:50:41.777Z,10.70
2018-05-17T08:53:09.890Z,10.33
2018-05-17T08:55:37.417Z,7.60
2018-05-17T08:58:06.680Z,8.23
2018-05-17T09:00:34.473Z,5.77
2018-05-17T09:03:02.740Z,9.80
2018-05-17T09:05:30.386Z,7.70
2018-05-17T09:07:57.819Z,6.07
2018-05-17T09:10:25.132Z,6.10
2018-05-17T09:12:52.597Z,7.33
2018-05-17T09:17:51.720Z,5.73
2018-05-17T09:20:19.164Z,6.50
2018-05-17T09:22:46.641Z,7.73
2018-05-17T09:25:14.081Z,6.33
2018-05-17T09:27:41.496Z,6.27
2018-05-17T09:30:09.652Z,6.53
2018-05-17T09:32:37.625Z,9.37
2018-05-17T09:35:06.256Z,10.40
2018-05-17T09:37:34.299Z,8.03
2018-05-17T09:40:01.877Z,27.00
2018-05-17T09:42:29.876Z,22.30
2018-05-17T09:44:57.487Z,11.07
2018-05-17T09:47:25.130Z,7.00
2018-05-17T09:49:52.504Z,10.67
2018-05-17T09:52:21.631Z,15.03
2018-05-17T09:54:49.260Z,7.57
2018-05-17T09:57:16.825Z,9.60
2018-05-17T09:59:44.290Z,7.70
2018-05-17T10:02:12.453Z,7.80
2018-05-17T10:07:12.158Z,7.43
2018-05-17T10:09:39.733Z,7.97
2018-05-17T10:12:07.583Z,11.20
2018-05-17T10:14:35.624Z,10.40
2018-05-17T10:19:36.198Z,13.07
2018-05-17T10:22:07.383Z,8.20
2018-05-17T10:24:35.568Z,7.40
2018-05-17T10:27:03.212Z,9.73
2018-05-17T10:32:02.726Z,9.67
2018-05-17T10:34:30.147Z,13.00
2018-05-17T10:36:57.486Z,8.90
2018-05-17T10:39:25.616Z,9.70
2018-05-17T10:41:53.283Z,7.40
2018-05-17T10:44:21.420Z,10.50
2018-05-17T10:46:48.973Z,9.63
2018-05-17T10:49:16.448Z,8.70
2018-05-17T10:51:44.534Z,11.83
2018-05-17T10:54:12.146Z,10.97
2018-05-17T10:56:40.551Z,7.57
2018-05-17T10:59:08.261Z,9.50
2018-05-17T11:01:35.802Z,10.33
2018-05-17T11:04:03.372Z,11.80
2018-05-17T11:06:30.924Z,9.53
2018-05-17T11:08:58.235Z,12.97
2018-05-17T11:11:26.406Z,7.53
2018-05-17T11:13:54.206Z,7.77
2018-05-17T11:16:21.943Z,11.53
2018-05-17T11:18:49.439Z,6.97
2018-05-17T11:21:18.611Z,15.03
2018-05-17T11:23:46.185Z,8.33
2018-05-17T11:26:13.635Z,5.63
2018-05-17T11:28:41.311Z,5.23
2018-05-17T11:31:09.011Z,6.20
2018-05-17T11:33:36.991Z,9.93
2018-05-17T11:36:04.697Z,6.57
2018-05-17T11:38:32.231Z,6.77
2018-05-17T11:41:00.206Z,8.80
2018-05-17T11:43:27.609Z,6.47
2018-05-17T11:45:54.977Z,5.80
2018-05-17T11:48:22.373Z,4.40
2018-05-17T11:50:50.428Z,5.47
2018-05-17T11:58:21.337Z,8.20
2018-05-17T12:00:48.796Z,7.37
2018-05-17T12:03:16.649Z,9.57
2018-05-17T12:05:44.097Z,5.00
2018-05-17T12:08:11.514Z,7.23
2018-05-17T12:13:10.846Z,11.83
2018-05-17T12:18:10.342Z,13.37
2018-05-17T12:20:38.020Z,5.63
2018-05-17T12:25:37.094Z,14.90
2018-05-17T12:28:04.556Z,10.27
2018-05-17T12:30:32.628Z,10.67
2018-05-17T12:33:00.277Z,15.17
2018-05-17T12:40:32.849Z,9.27
2018-05-17T12:43:01.365Z,9.93
2018-05-17T12:45:29.159Z,7.17
2018-05-17T12:48:07.459Z,6.97
2018-05-17T12:50:35.273Z,8.00
2018-05-17T12:53:06.599Z,13.27
2018-05-17T12:55:34.520Z,13.00
2018-05-17T12:58:03.686Z,7.30
2018-05-17T13:00:31.257Z,8.23
2018-05-17T13:05:31.323Z,7.60
2018-05-17T13:10:30.739Z,7.33
2018-05-17T13:13:02.052Z,5.87
2018-05-17T13:15:29.566Z,6.10
2018-05-17T13:17:57.425Z,7.40
2018-05-17T13:20:26.645Z,6.57
2018-05-17T13:27:58.487Z,10.73
2018-05-17T13:30:26.087Z,12.80
2018-05-17T13:32:55.335Z,8.13
2018-05-17T13:35:22.896Z,6.43
2018-05-17T13:40:22.629Z,11.63
2018-05-17T13:42:50.225Z,8.50
2018-05-17T13:45:21.219Z,5.47
2018-05-17T13:47:49.127Z,8.63
2018-05-17T13:55:22.962Z,5.20
2018-05-17T13:57:50.600Z,4.87
2018-05-17T14:02:50.792Z,4.17
2018-05-17T14:07:54.555Z,5.80
2018-05-17T14:10:22.735Z,5.27
2018-05-17T14:12:50.310Z,3.60
2018-05-17T14:15:18.618Z,6.17
2018-05-17T14:17:46.125Z,6.50
2018-05-17T14:22:46.165Z,4.20
2018-05-17T14:27:45.949Z,4.47
2018-05-17T14:30:13.443Z,7.93
2018-05-17T14:32:41.087Z,7.13
2018-05-17T14:35:08.624Z,10.50
2018-05-17T14:37:36.383Z,7.03
2018-05-17T14:40:04.183Z,9.20
2018-05-17T14:42:31.633Z,13.47
2018-05-17T14:44:59.082Z,11.67
2018-05-17T14:47:26.369Z,11.87
2018-05-17T14:49:53.719Z,14.63
2018-05-17T14:52:21.096Z,12.93
2018-05-17T14:54:48.628Z,15.90
2018-05-17T14:57:16.220Z,16.23
2018-05-17T14:59:43.674Z,15.93
2018-05-17T15:02:11.092Z,13.90
2018-05-17T15:04:39.167Z,14.87
2018-05-17T15:07:11.015Z,11.30
2018-05-17T15:09:38.724Z,16.23
2018-05-17T15:12:06.458Z,14.20
2018-05-17T15:14:33.986Z,12.63
2018-05-17T15:17:02.027Z,12.27
2018-05-17T15:19:29.494Z,10.47
2018-05-17T15:21:57.658Z,12.07
2018-05-17T15:24:25.066Z,17.47
2018-05-17T15:29:24.698Z,16.00
2018-05-17T15:31:52.369Z,13.23
2018-05-17T15:34:20.110Z,22.13
2018-05-17T15:36:48.653Z,16.70
2018-05-17T15:39:16.106Z,21.37
2018-05-17T15:41:44.445Z,18.30
2018-05-17T15:44:12.203Z,20.10
2018-05-17T15:46:39.832Z,23.47
2018-05-17T15:49:07.538Z,23.17
2018-05-17T15:51:34.988Z,25.50
2018-05-17T15:54:02.488Z,23.13
2018-05-17T15:56:29.976Z,21.10
2018-05-17T15:58:57.330Z,17.60
2018-05-17T16:01:24.683Z,21.97
2018-05-17T16:03:52.088Z,22.60
2018-05-17T16:06:19.677Z,20.83
2018-05-17T16:08:47.227Z,17.67
2018-05-17T16:11:14.699Z,18.03
2018-05-17T16:13:42.327Z,22.87
2018-05-17T16:16:09.838Z,18.63
2018-05-17T16:18:37.464Z,19.57
2018-05-17T16:21:04.927Z,15.40
2018-05-17T16:23:32.202Z,15.03
2018-05-17T16:25:59.739Z,18.03
2018-05-17T16:28:27.196Z,13.53
2018-05-17T16:30:54.769Z,12.50
2018-05-17T16:33:22.056Z,16.23
2018-05-17T16:35:49.568Z,16.07
2018-05-17T16:38:16.966Z,15.63
2018-05-17T16:40:44.554Z,19.00
2018-05-17T16:43:12.110Z,13.10
2018-05-17T16:45:39.818Z,16.13
2018-05-17T16:48:07.559Z,15.93
2018-05-17T16:50:34.973Z,21.83
2018-05-17T16:53:02.471Z,25.73
2018-05-17T16:55:29.703Z,22.87
2018-05-17T16:57:57.180Z,23.97
2018-05-17T17:00:24.614Z,23.13
2018-05-17T17:02:52.213Z,24.70
2018-05-17T17:05:19.643Z,24.87
2018-05-17T17:07:47.245Z,25.47
2018-05-17T17:10:14.666Z,27.03
2018-05-17T17:12:42.171Z,28.57
2018-05-17T17:15:09.655Z,24.60
2018-05-17T17:17:37.382Z,35.67
2018-05-17T17:20:05.003Z,25.97
2018-05-17T17:22:32.481Z,34.87
2018-05-17T17:24:59.903Z,36.03
2018-05-17T17:27:27.253Z,32.17
2018-05-17T17:29:55.491Z,33.13
2018-05-17T17:32:23.319Z,35.07
2018-05-17T17:34:50.726Z,34.43
2018-05-17T17:37:18.065Z,49.83
2018-05-17T17:39:45.494Z,33.53
2018-05-17T17:42:13.020Z,38.37
2018-05-17T17:44:40.907Z,41.90
2018-05-17T17:47:08.546Z,42.30
2018-05-17T17:49:36.479Z,48.83
2018-05-17T17:52:03.995Z,51.93
2018-05-17T17:54:31.568Z,51.53
2018-05-17T17:56:59.280Z,47.93
2018-05-17T17:59:26.670Z,57.40
2018-05-17T18:01:54.259Z,64.60
2018-05-17T18:04:21.645Z,53.40
2018-05-17T18:06:48.989Z,56.23
2018-05-17T18:09:16.424Z,55.90
2018-05-17T18:11:43.909Z,53.40
2018-05-17T18:14:11.728Z,56.40
2018-05-17T18:16:39.777Z,55.50
2018-05-17T18:19:07.303Z,49.90
2018-05-17T18:21:34.768Z,55.73
2018-05-17T18:24:03.001Z,63.80
2018-05-17T18:26:30.356Z,53.90
2018-05-17T18:28:57.832Z,59.80
2018-05-17T18:31:25.138Z,57.43
2018-05-17T18:33:52.606Z,54.37
2018-05-17T18:36:20.704Z,59.80
2018-05-17T18:38:48.309Z,60.47
2018-05-17T18:41:16.500Z,65.13
2018-05-17T18:43:43.949Z,51.83
2018-05-17T18:46:11.315Z,63.37
2018-05-17T18:48:38.772Z,63.60
2018-05-17T18:51:06.321Z,57.93
2018-05-17T18:53:33.605Z,63.57
2018-05-17T18:56:01.192Z,65.20
2018-05-17T18:58:28.820Z,69.27
2018-05-17T19:00:56.262Z,75.13
2018-05-17T19:03:23.594Z,68.13
2018-05-17T19:05:50.926Z,64.10
2018-05-17T19:08:18.311Z,66.17
2018-05-17T19:10:45.653Z,77.30
2018-05-17T19:13:13.089Z,60.03
2018-05-17T19:15:40.809Z,68.73
2018-05-17T19:18:08.257Z,78.67
2018-05-17T19:20:36.428Z,68.37
2018-05-17T19:23:03.778Z,73.50
2018-05-17T19:25:31.427Z,71.37
2018-05-17T19:27:58.789Z,66.90
2018-05-17T19:30:26.129Z,71.63
2018-05-17T19:32:53.464Z,59.70
2018-05-17T19:35:20.806Z,73.20
2018-05-17T19:37:48.130Z,67.20
2018-05-17T19:40:15.466Z,78.83
2018-05-17T19:42:42.918Z,73.63
2018-05-17T19:45:10.748Z,78.30
2018-05-17T19:47:38.545Z,70.57
2018-05-17T19:50:07.183Z,76.27
2018-05-17T19:52:34.556Z,80.90
2018-05-17T19:55:01.906Z,76.57
2018-05-17T19:57:29.316Z,70.30
2018-05-17T19:59:56.786Z,78.90
2018-05-17T20:02:24.236Z,70.63
2018-05-17T20:04:51.519Z,75.70
2018-05-17T20:07:19.119Z,68.87
2018-05-17T20:09:46.506Z,76.77
2018-05-17T20:12:14.148Z,93.50
2018-05-17T20:14:41.877Z,66.57
2018-05-17T20:17:09.348Z,68.30
2018-05-17T20:19:36.849Z,69.20
2018-05-17T20:22:04.371Z,72.07
2018-05-17T20:24:31.682Z,69.47
2018-05-17T20:26:59.055Z,77.50
2018-05-17T20:29:26.375Z,78.20
2018-05-17T20:31:53.695Z,75.50
2018-05-17T20:34:21.150Z,85.57
2018-05-17T20:36:48.587Z,70.53
2018-05-17T20:39:15.926Z,64.10
2018-05-17T20:41:43.742Z,74.73
2018-05-17T20:44:11.253Z,64.13
2018-05-17T20:46:38.880Z,77.10
2018-05-17T20:49:07.219Z,82.57
2018-05-17T20:51:34.569Z,80.13
2018-05-17T20:54:01.987Z,79.17
2018-05-17T20:56:29.304Z,74.23
2018-05-17T20:58:56.636Z,78.47
2018-05-17T21:01:23.910Z,73.67
2018-05-17T21:03:51.249Z,84.47
2018-05-17T21:06:18.631Z,76.93
2018-05-17T21:08:46.053Z,82.23
2018-05-17T21:11:13.787Z,80.23
2018-05-17T21:13:41.928Z,82.47
2018-05-17T21:16:09.547Z,83.20
2018-05-17T21:18:37.424Z,106.57
2018-05-17T21:21:04.834Z,83.40
2018-05-17T21:23:32.205Z,91.07
2018-05-17T21:25:59.807Z,75.37
2018-05-17T21:28:27.138Z,82.13
2018-05-17T21:30:54.965Z,89.83
2018-05-17T21:33:22.534Z,92.03
2018-05-17T21:35:49.848Z,89.37
2018-05-17T21:38:20.855Z,83.37
2018-05-17T21:40:48.580Z,88.60
2018-05-17T21:43:16.011Z,98.47
2018-05-17T21:45:43.617Z,98.87
2018-05-17T21:48:11.138Z,96.33
2018-05-17T21:50:39.252Z,91.80
2018-05-17T21:53:07.179Z,105.30
2018-05-17T21:55:36.169Z,105.87
2018-05-17T21:58:03.465Z,96.70
2018-05-17T22:00:31.363Z,93.57
2018-05-17T22:02:58.730Z,92.37
2018-05-17T22:05:28.301Z,99.10
2018-05-17T22:07:55.926Z,86.03
2018-05-17T22:10:24.178Z,93.73
2018-05-17T22:12:51.513Z,111.20
2018-05-17T22:15:19.386Z,99.47
2018-05-17T22:17:46.699Z,96.80
2018-05-17T22:20:14.273Z,96.27
2018-05-17T22:22:41.741Z,96.77
2018-05-17T22:25:14.598Z,87.97
2018-05-17T22:27:41.973Z,108.63
2018-05-17T22:30:09.870Z,93.33
2018-05-17T22:32:37.693Z,108.70
2018-05-17T22:35:05.010Z,91.80
2018-05-17T22:37:33.378Z,98.33
2018-05-17T22:40:00.903Z,80.00
2018-05-17T22:42:28.277Z,95.00
2018-05-17T22:44:55.657Z,86.33
2018-05-17T22:47:22.982Z,109.43
2018-05-17T22:49:50.446Z,82.47
2018-05-17T22:52:17.758Z,92.03
2018-05-17T22:54:45.268Z,110.07
2018-05-17T22:57:12.837Z,98.87
2018-05-17T22:59:40.345Z,94.53
2018-05-17T23:02:07.919Z,91.23
2018-05-17T23:04:35.371Z,95.67
2018-05-17T23:07:02.685Z,94.60
2018-05-17T23:09:30.228Z,92.97
2018-05-17T23:11:57.695Z,103.20
2018-05-17T23:14:25.552Z,97.43
2018-05-17T23:16:53.493Z,101.83
2018-05-17T23:19:20.879Z,93.10
2018-05-17T23:21:48.198Z,104.80
2018-05-17T23:24:15.522Z,106.33
2018-05-17T23:26:43.116Z,104.70
2018-05-17T23:29:10.578Z,100.77
2018-05-17T23:31:38.073Z,113.03
2018-05-17T23:34:05.422Z,119.17
2018-05-17T23:36:33.031Z,109.23
2018-05-17T23:39:00.442Z,94.83
2018-05-17T23:41:33.757Z,100.17
2018-05-17T23:44:01.471Z,100.23
2018-05-17T23:46:29.137Z,106.87
2018-05-17T23:48:56.498Z,107.40
2018-05-17T23:51:23.974Z,101.10
2018-05-17T23:53:51.350Z,103.63
2018-05-17T23:56:18.706Z,101.90
2018-05-17T23:58:46.009Z,114.90
